createdAt,value
2018-09-12T00:00:58.441Z,1014.28
2018-09-12T00:01:58.399Z,1014.27
2018-09-12T00:02:58.422Z,1014.26
2018-09-12T00:03:58.437Z,1014.26
2018-09-12T00:04:58.431Z,1014.25
2018-09-12T00:05:58.409Z,1014.23
2018-09-12T00:06:58.444Z,1014.20
2018-09-12T00:07:58.401Z,1014.20
2018-09-12T00:08:58.430Z,1014.20
2018-09-12T00:09:58.418Z,1014.17
2018-09-12T00:10:58.453Z,1014.17
2018-09-12T00:11:58.431Z,1014.16
2018-09-12T00:12:58.465Z,1014.13
2018-09-12T00:13:58.445Z,1014.13
2018-09-12T00:14:58.455Z,1014.15
2018-09-12T00:15:58.440Z,1014.13
2018-09-12T00:16:58.439Z,1014.14
2018-09-12T00:17:58.454Z,1014.10
2018-09-12T00:18:58.437Z,1014.14
2018-09-12T00:19:58.457Z,1014.15
2018-09-12T00:20:58.457Z,1014.12
2018-09-12T00:21:58.477Z,1014.10
2018-09-12T00:22:58.456Z,1014.12
2018-09-12T00:23:58.460Z,1014.09
2018-09-12T00:24:58.663Z,1014.03
2018-09-12T00:25:58.495Z,1014.05
2018-09-12T00:26:58.483Z,1014.04
2018-09-12T00:27:58.467Z,1014.06
2018-09-12T00:28:58.454Z,1014.05
2018-09-12T00:29:58.482Z,1014.05
2018-09-12T00:30:58.479Z,1014.01
2018-09-12T00:31:58.489Z,1014.03
2018-09-12T00:32:58.477Z,1014.06
2018-09-12T00:33:58.473Z,1014.07
2018-09-12T00:34:58.490Z,1014.05
2018-09-12T00:35:58.485Z,1014.05
2018-09-12T00:36:58.530Z,1014.03
2018-09-12T00:37:58.587Z,1014.04
2018-09-12T00:38:58.497Z,1014.03
2018-09-12T00:39:58.498Z,1014.09
2018-09-12T00:40:58.518Z,1014.08
2018-09-12T00:41:58.496Z,1014.07
2018-09-12T00:42:58.501Z,1014.03
2018-09-12T00:43:58.513Z,1014.00
2018-09-12T00:44:58.521Z,1014.01
2018-09-12T00:45:58.525Z,1013.99
2018-09-12T00:46:58.558Z,1013.98
2018-09-12T00:47:58.519Z,1013.95
2018-09-12T00:48:58.526Z,1013.96
2018-09-12T00:49:58.525Z,1013.96
2018-09-12T00:50:58.566Z,1013.92
2018-09-12T00:51:58.521Z,1013.95
2018-09-12T00:52:58.527Z,1013.91
2018-09-12T00:53:58.528Z,1013.92
2018-09-12T00:54:58.542Z,1013.89
2018-09-12T00:55:58.542Z,1013.90
2018-09-12T00:56:58.536Z,1013.91
2018-09-12T00:57:58.547Z,1013.87
2018-09-12T00:58:58.547Z,1013.90
2018-09-12T00:59:58.560Z,1013.89
2018-09-12T01:00:58.630Z,1013.90
2018-09-12T01:01:58.560Z,1013.90
2018-09-12T01:02:58.571Z,1013.89
2018-09-12T01:03:58.556Z,1013.91
2018-09-12T01:04:58.592Z,1013.93
2018-09-12T01:05:59.495Z,1013.90
2018-09-12T01:06:58.593Z,1013.91
2018-09-12T01:07:58.568Z,1013.89
2018-09-12T01:08:58.598Z,1013.88
2018-09-12T01:09:58.575Z,1013.91
2018-09-12T01:10:58.596Z,1013.90
2018-09-12T01:11:58.588Z,1013.94
2018-09-12T01:12:58.566Z,1013.94
2018-09-12T01:13:58.579Z,1013.92
2018-09-12T01:14:58.581Z,1013.96
2018-09-12T01:15:58.586Z,1013.94
2018-09-12T01:16:58.593Z,1013.95
2018-09-12T01:17:58.598Z,1013.96
2018-09-12T01:18:58.687Z,1013.97
2018-09-12T01:19:58.600Z,1013.93
2018-09-12T01:20:58.590Z,1013.91
2018-09-12T01:21:58.597Z,1013.93
2018-09-12T01:22:58.643Z,1013.89
2018-09-12T01:23:58.603Z,1013.90
2018-09-12T01:24:58.620Z,1013.86
2018-09-12T01:25:58.621Z,1013.82
2018-09-12T01:26:58.620Z,1013.81
2018-09-12T01:27:58.638Z,1013.84
2018-09-12T01:28:59.508Z,1013.79
2018-09-12T01:29:58.643Z,1013.82
2018-09-12T01:30:58.616Z,1013.82
2018-09-12T01:31:58.655Z,1013.80
2018-09-12T01:32:58.631Z,1013.82
2018-09-12T01:33:58.638Z,1013.86
2018-09-12T01:34:58.646Z,1013.89
2018-09-12T01:35:58.632Z,1013.86
2018-09-12T01:36:58.632Z,1013.88
2018-09-12T01:37:58.665Z,1013.86
2018-09-12T01:38:58.641Z,1013.86
2018-09-12T01:39:58.646Z,1013.89
2018-09-12T01:40:58.641Z,1013.86
2018-09-12T01:41:58.768Z,1013.86
2018-09-12T01:42:58.648Z,1013.87
2018-09-12T01:43:58.659Z,1013.90
2018-09-12T01:44:58.659Z,1013.87
2018-09-12T01:45:58.660Z,1013.86
2018-09-12T01:46:58.664Z,1013.85
2018-09-12T01:47:58.659Z,1013.85
2018-09-12T01:48:58.698Z,1013.83
2018-09-12T01:49:58.686Z,1013.84
2018-09-12T01:50:58.687Z,1013.85
2018-09-12T01:51:58.692Z,1013.84
2018-09-12T01:52:58.719Z,1013.85
2018-09-12T01:53:58.709Z,1013.82
2018-09-12T01:54:58.762Z,1013.86
2018-09-12T01:55:58.857Z,1013.84
2018-09-12T01:56:58.689Z,1013.81
2018-09-12T01:57:58.690Z,1013.81
2018-09-12T01:58:58.694Z,1013.82
2018-09-12T01:59:58.700Z,1013.82
2018-09-12T02:00:58.690Z,1013.81
2018-09-12T02:01:58.780Z,1013.78
2018-09-12T02:02:58.715Z,1013.77
2018-09-12T02:03:58.710Z,1013.77
2018-09-12T02:04:58.704Z,1013.76
2018-09-12T02:05:58.715Z,1013.77
2018-09-12T02:06:58.702Z,1013.74
2018-09-12T02:07:58.701Z,1013.77
2018-09-12T02:08:58.726Z,1013.71
2018-09-12T02:09:58.743Z,1013.72
2018-09-12T02:10:58.734Z,1013.74
2018-09-12T02:11:58.717Z,1013.69
2018-09-12T02:12:58.782Z,1013.66
2018-09-12T02:13:58.727Z,1013.63
2018-09-12T02:14:58.731Z,1013.66
2018-09-12T02:15:58.730Z,1013.66
2018-09-12T02:16:58.731Z,1013.61
2018-09-12T02:17:58.759Z,1013.57
2018-09-12T02:18:58.759Z,1013.58
2018-09-12T02:19:58.726Z,1013.62
2018-09-12T02:20:58.744Z,1013.63
2018-09-12T02:21:58.736Z,1013.61
2018-09-12T02:22:58.755Z,1013.61
2018-09-12T02:23:58.759Z,1013.62
2018-09-12T02:24:58.749Z,1013.57
2018-09-12T02:25:58.814Z,1013.57
2018-09-12T02:26:58.750Z,1013.61
2018-09-12T02:27:58.758Z,1013.59
2018-09-12T02:28:58.764Z,1013.58
2018-09-12T02:29:58.772Z,1013.58
2018-09-12T02:30:58.786Z,1013.55
2018-09-12T02:31:58.787Z,1013.56
2018-09-12T02:32:58.788Z,1013.57
2018-09-12T02:33:58.768Z,1013.57
2018-09-12T02:34:58.772Z,1013.56
2018-09-12T02:35:58.809Z,1013.52
2018-09-12T02:36:58.786Z,1013.48
2018-09-12T02:37:58.798Z,1013.49
2018-09-12T02:38:58.795Z,1013.49
2018-09-12T02:39:58.789Z,1013.52
2018-09-12T02:40:58.788Z,1013.51
2018-09-12T02:41:58.791Z,1013.51
2018-09-12T02:42:58.796Z,1013.55
2018-09-12T02:43:58.826Z,1013.52
2018-09-12T02:44:58.800Z,1013.50
2018-09-12T02:45:58.795Z,1013.53
2018-09-12T02:46:58.795Z,1013.53
2018-09-12T02:47:58.806Z,1013.53
2018-09-12T02:48:58.826Z,1013.50
2018-09-12T02:49:58.827Z,1013.49
2018-09-12T02:50:58.815Z,1013.50
2018-09-12T02:51:58.816Z,1013.47
2018-09-12T02:52:58.854Z,1013.51
2018-09-12T02:53:58.923Z,1013.53
2018-09-12T02:54:58.819Z,1013.54
2018-09-12T02:55:58.818Z,1013.53
2018-09-12T02:56:58.829Z,1013.55
2018-09-12T02:57:58.833Z,1013.50
2018-09-12T02:58:58.841Z,1013.51
2018-09-12T02:59:58.834Z,1013.45
2018-09-12T03:00:58.855Z,1013.51
2018-09-12T03:01:58.832Z,1013.48
2018-09-12T03:02:58.838Z,1013.44
2018-09-12T03:03:58.852Z,1013.49
2018-09-12T03:04:58.849Z,1013.45
2018-09-12T03:05:58.838Z,1013.42
2018-09-12T03:06:58.928Z,1013.43
2018-09-12T03:07:58.902Z,1013.37
2018-09-12T03:08:58.846Z,1013.38
2018-09-12T03:09:58.851Z,1013.36
2018-09-12T03:10:58.848Z,1013.33
2018-09-12T03:11:58.849Z,1013.37
2018-09-12T03:12:58.875Z,1013.33
2018-09-12T03:13:58.864Z,1013.33
2018-09-12T03:14:58.896Z,1013.32
2018-09-12T03:15:58.889Z,1013.30
2018-09-12T03:16:58.931Z,1013.30
2018-09-12T03:17:58.894Z,1013.32
2018-09-12T03:18:58.890Z,1013.29
2018-09-12T03:19:58.874Z,1013.28
2018-09-12T03:20:59.133Z,1013.26
2018-09-12T03:21:58.895Z,1013.27
2018-09-12T03:22:58.887Z,1013.27
2018-09-12T03:23:58.881Z,1013.27
2018-09-12T03:24:58.888Z,1013.29
2018-09-12T03:25:58.899Z,1013.32
2018-09-12T03:26:58.886Z,1013.28
2018-09-12T03:27:58.897Z,1013.30
2018-09-12T03:28:58.905Z,1013.26
2018-09-12T03:29:59.001Z,1013.31
2018-09-12T03:30:58.937Z,1013.29
2018-09-12T03:31:58.915Z,1013.31
2018-09-12T03:32:58.905Z,1013.31
2018-09-12T03:33:58.906Z,1013.26
2018-09-12T03:34:58.920Z,1013.25
2018-09-12T03:35:58.930Z,1013.24
2018-09-12T03:36:58.930Z,1013.27
2018-09-12T03:37:58.921Z,1013.23
2018-09-12T03:38:58.945Z,1013.20
2018-09-12T03:39:58.937Z,1013.19
2018-09-12T03:40:58.927Z,1013.16
2018-09-12T03:41:58.950Z,1013.11
2018-09-12T03:42:58.975Z,1013.13
2018-09-12T03:43:58.939Z,1013.11
2018-09-12T03:44:58.956Z,1013.12
2018-09-12T03:45:58.935Z,1013.12
2018-09-12T03:46:58.935Z,1013.09
2018-09-12T03:47:58.980Z,1013.10
2018-09-12T03:48:58.963Z,1013.09
2018-09-12T03:49:58.945Z,1013.09
2018-09-12T03:50:58.962Z,1013.09
2018-09-12T03:51:58.954Z,1013.09
2018-09-12T03:52:58.961Z,1013.08
2018-09-12T03:53:58.952Z,1013.07
2018-09-12T03:54:58.953Z,1013.07
2018-09-12T03:55:58.966Z,1013.04
2018-09-12T03:56:58.995Z,1013.05
2018-09-12T03:57:58.976Z,1013.09
2018-09-12T03:58:58.985Z,1013.09
2018-09-12T03:59:58.981Z,1013.08
2018-09-12T04:00:58.998Z,1013.10
2018-09-12T04:01:58.995Z,1013.06
2018-09-12T04:02:58.979Z,1013.08
2018-09-12T04:03:58.972Z,1013.08
2018-09-12T04:04:58.976Z,1013.03
2018-09-12T04:05:58.983Z,1013.03
2018-09-12T04:06:59.020Z,1013.04
2018-09-12T04:07:58.995Z,1013.03
2018-09-12T04:08:58.979Z,1012.99
2018-09-12T04:09:59.008Z,1013.07
2018-09-12T04:10:59.132Z,1013.06
2018-09-12T04:11:58.997Z,1013.08
2018-09-12T04:12:58.996Z,1013.06
2018-09-12T04:13:59.003Z,1013.11
2018-09-12T04:14:59.020Z,1013.10
2018-09-12T04:15:59.007Z,1013.14
2018-09-12T04:16:59.070Z,1013.14
2018-09-12T04:17:59.024Z,1013.13
2018-09-12T04:18:59.041Z,1013.13
2018-09-12T04:19:59.020Z,1013.14
2018-09-12T04:20:59.031Z,1013.18
2018-09-12T04:21:59.034Z,1013.18
2018-09-12T04:22:59.044Z,1013.19
2018-09-12T04:23:59.102Z,1013.22
2018-09-12T04:24:59.049Z,1013.23
2018-09-12T04:25:59.034Z,1013.23
2018-09-12T04:26:59.084Z,1013.26
2018-09-12T04:27:59.054Z,1013.29
2018-09-12T04:28:59.034Z,1013.26
2018-09-12T04:29:59.034Z,1013.28
2018-09-12T04:30:59.051Z,1013.25
2018-09-12T04:31:59.034Z,1013.27
2018-09-12T04:32:59.047Z,1013.30
2018-09-12T04:33:59.047Z,1013.31
2018-09-12T04:34:59.047Z,1013.29
2018-09-12T04:35:59.054Z,1013.33
2018-09-12T04:36:59.098Z,1013.40
2018-09-12T04:37:59.061Z,1013.44
2018-09-12T04:38:59.086Z,1013.40
2018-09-12T04:39:59.081Z,1013.40
2018-09-12T04:40:59.070Z,1013.41
2018-09-12T04:41:59.070Z,1013.42
2018-09-12T04:42:59.101Z,1013.40
2018-09-12T04:43:59.097Z,1013.40
2018-09-12T04:44:59.064Z,1013.41
2018-09-12T04:45:59.065Z,1013.42
2018-09-12T04:46:59.073Z,1013.45
2018-09-12T04:47:59.077Z,1013.49
2018-09-12T04:48:59.081Z,1013.46
2018-09-12T04:49:59.086Z,1013.53
2018-09-12T04:50:59.071Z,1013.50
2018-09-12T04:52:00.116Z,1013.48
2018-09-12T04:52:59.079Z,1013.50
2018-09-12T04:53:59.120Z,1013.48
2018-09-12T04:54:59.090Z,1013.49
2018-09-12T04:55:59.090Z,1013.50
2018-09-12T04:56:59.148Z,1013.50
2018-09-12T04:57:59.145Z,1013.50
2018-09-12T04:58:59.176Z,1013.50
2018-09-12T04:59:59.147Z,1013.52
2018-09-12T05:00:59.162Z,1013.53
2018-09-12T05:01:59.100Z,1013.54
2018-09-12T05:02:59.125Z,1013.56
2018-09-12T05:03:59.104Z,1013.55
2018-09-12T05:04:59.122Z,1013.54
2018-09-12T05:05:59.113Z,1013.53
2018-09-12T05:06:59.119Z,1013.49
2018-09-12T05:07:59.119Z,1013.54
2018-09-12T05:08:59.128Z,1013.56
2018-09-12T05:09:59.123Z,1013.55
2018-09-12T05:10:59.130Z,1013.56
2018-09-12T05:11:59.155Z,1013.56
2018-09-12T05:12:59.138Z,1013.53
2018-09-12T05:13:59.137Z,1013.52
2018-09-12T05:14:59.132Z,1013.53
2018-09-12T05:15:59.148Z,1013.49
2018-09-12T05:16:59.154Z,1013.57
2018-09-12T05:17:59.149Z,1013.58
2018-09-12T05:18:59.148Z,1013.60
2018-09-12T05:19:59.175Z,1013.58
2018-09-12T05:20:59.181Z,1013.60
2018-09-12T05:21:59.180Z,1013.57
2018-09-12T05:22:59.174Z,1013.60
2018-09-12T05:23:59.155Z,1013.59
2018-09-12T05:24:59.176Z,1013.61
2018-09-12T05:25:59.168Z,1013.60
2018-09-12T05:26:59.165Z,1013.59
2018-09-12T05:27:59.157Z,1013.64
2018-09-12T05:28:59.164Z,1013.66
2018-09-12T05:29:59.172Z,1013.60
2018-09-12T05:30:59.183Z,1013.65
2018-09-12T05:31:59.171Z,1013.64
2018-09-12T05:32:59.217Z,1013.65
2018-09-12T05:33:59.165Z,1013.63
2018-09-12T05:34:59.176Z,1013.63
2018-09-12T05:35:59.299Z,1013.65
2018-09-12T05:36:59.202Z,1013.64
2018-09-12T05:37:59.196Z,1013.58
2018-09-12T05:38:59.194Z,1013.59
2018-09-12T05:39:59.208Z,1013.64
2018-09-12T05:40:59.212Z,1013.60
2018-09-12T05:41:59.228Z,1013.69
2018-09-12T05:42:59.222Z,1013.65
2018-09-12T05:43:59.293Z,1013.70
2018-09-12T05:44:59.206Z,1013.69
2018-09-12T05:45:59.219Z,1013.70
2018-09-12T05:46:59.221Z,1013.71
2018-09-12T05:47:59.242Z,1013.72
2018-09-12T05:48:59.258Z,1013.69
2018-09-12T05:49:59.264Z,1013.76
2018-09-12T05:50:59.212Z,1013.69
2018-09-12T05:51:59.231Z,1013.75
2018-09-12T05:52:59.256Z,1013.75
2018-09-12T05:53:59.222Z,1013.67
2018-09-12T05:54:59.239Z,1013.70
2018-09-12T05:55:59.253Z,1013.72
2018-09-12T05:56:59.281Z,1013.72
2018-09-12T05:57:59.244Z,1013.74
2018-09-12T05:58:59.375Z,1013.67
2018-09-12T05:59:59.253Z,1013.65
2018-09-12T06:00:59.255Z,1013.64
2018-09-12T06:01:59.258Z,1013.70
2018-09-12T06:02:59.263Z,1013.62
2018-09-12T06:03:59.254Z,1013.67
2018-09-12T06:04:59.304Z,1013.65
2018-09-12T06:05:59.300Z,1013.60
2018-09-12T06:06:59.297Z,1013.64
2018-09-12T06:07:59.270Z,1013.56
2018-09-12T06:08:59.289Z,1013.56
2018-09-12T06:09:59.253Z,1013.59
2018-09-12T06:10:59.254Z,1013.62
2018-09-12T06:11:59.376Z,1013.60
2018-09-12T06:12:59.282Z,1013.54
2018-09-12T06:13:59.288Z,1013.60
2018-09-12T06:14:59.267Z,1013.64
2018-09-12T06:15:59.275Z,1013.59
2018-09-12T06:16:59.298Z,1013.69
2018-09-12T06:17:59.287Z,1013.61
2018-09-12T06:18:59.319Z,1013.60
2018-09-12T06:19:59.339Z,1013.63
2018-09-12T06:20:59.290Z,1013.66
2018-09-12T06:21:59.308Z,1013.68
2018-09-12T06:22:59.295Z,1013.68
2018-09-12T06:23:59.348Z,1013.67
2018-09-12T06:24:59.316Z,1013.68
2018-09-12T06:25:59.316Z,1013.72
2018-09-12T06:26:59.340Z,1013.72
2018-09-12T06:27:59.306Z,1013.70
2018-09-12T06:28:59.316Z,1013.71
2018-09-12T06:29:59.429Z,1013.68
2018-09-12T06:30:59.341Z,1013.71
2018-09-12T06:31:59.316Z,1013.71
2018-09-12T06:32:59.314Z,1013.68
2018-09-12T06:33:59.321Z,1013.74
2018-09-12T06:34:59.327Z,1013.79
2018-09-12T06:35:59.326Z,1013.77
2018-09-12T06:36:59.333Z,1013.80
2018-09-12T06:37:59.324Z,1013.83
2018-09-12T06:38:59.325Z,1013.81
2018-09-12T06:39:59.362Z,1013.84
2018-09-12T06:40:59.335Z,1013.82
2018-09-12T06:41:59.335Z,1013.86
2018-09-12T06:42:59.411Z,1013.85
2018-09-12T06:43:59.373Z,1013.90
2018-09-12T06:44:59.349Z,1013.87
2018-09-12T06:45:59.419Z,1013.88
2018-09-12T06:46:59.360Z,1013.87
2018-09-12T06:47:59.372Z,1013.88
2018-09-12T06:48:59.417Z,1013.92
2018-09-12T06:49:59.694Z,1013.93
2018-09-12T06:50:59.385Z,1013.95
2018-09-12T06:51:59.380Z,1013.89
2018-09-12T06:52:59.362Z,1013.88
2018-09-12T06:53:59.439Z,1013.90
2018-09-12T06:54:59.567Z,1013.90
2018-09-12T06:55:59.498Z,1013.85
2018-09-12T06:56:59.424Z,1013.82
2018-09-12T06:57:59.370Z,1013.85
2018-09-12T06:58:59.412Z,1013.86
2018-09-12T06:59:59.398Z,1013.86
2018-09-12T07:00:59.470Z,1013.84
2018-09-12T07:01:59.400Z,1013.87
2018-09-12T07:02:59.502Z,1013.87
2018-09-12T07:03:59.401Z,1013.88
2018-09-12T07:04:59.394Z,1013.89
2018-09-12T07:05:59.418Z,1013.87
2018-09-12T07:06:59.432Z,1013.85
2018-09-12T07:07:59.400Z,1013.86
2018-09-12T07:08:59.437Z,1013.90
2018-09-12T07:09:59.420Z,1013.77
2018-09-12T07:10:59.414Z,1013.99
2018-09-12T07:12:06.483Z,1014.12
2018-09-12T07:12:59.445Z,1014.00
2018-09-12T07:13:59.541Z,1014.07
2018-09-12T07:14:59.444Z,1014.11
2018-09-12T07:15:59.476Z,1014.10
2018-09-12T07:16:59.455Z,1014.03
2018-09-12T07:17:59.519Z,1014.04
2018-09-12T07:19:00.264Z,1014.02
2018-09-12T07:19:59.472Z,1014.09
2018-09-12T07:20:59.454Z,1014.05
2018-09-12T07:21:59.537Z,1014.01
2018-09-12T07:22:59.443Z,1013.91
2018-09-12T07:23:59.522Z,1013.98
2018-09-12T07:24:59.477Z,1013.91
2018-09-12T07:25:59.471Z,1013.93
2018-09-12T07:26:59.495Z,1013.93
2018-09-12T07:27:59.478Z,1014.05
2018-09-12T07:28:59.462Z,1014.00
2018-09-12T07:29:59.487Z,1014.09
2018-09-12T07:30:59.591Z,1014.03
2018-09-12T07:31:59.509Z,1013.93
2018-09-12T07:32:59.522Z,1014.05
2018-09-12T07:33:59.485Z,1013.98
2018-09-12T07:34:59.553Z,1014.09
2018-09-12T07:35:59.480Z,1014.12
2018-09-12T07:36:59.611Z,1014.05
2018-09-12T07:37:59.545Z,1013.91
2018-09-12T07:38:59.500Z,1013.95
2018-09-12T07:39:59.555Z,1014.19
2018-09-12T07:40:59.610Z,1014.05
2018-09-12T07:41:59.550Z,1014.10
2018-09-12T07:42:59.763Z,1014.18
2018-09-12T07:43:59.816Z,1014.32
2018-09-12T07:44:59.537Z,1014.49
2018-09-12T07:45:59.637Z,1014.27
2018-09-12T07:47:00.189Z,1014.17
2018-09-12T07:47:59.537Z,1014.18
2018-09-12T07:48:59.642Z,1014.33
2018-09-12T07:49:59.638Z,1014.60
2018-09-12T07:50:59.603Z,1014.25
2018-09-12T07:51:59.563Z,1014.36
2018-09-12T07:52:59.577Z,1014.79
2018-09-12T07:53:59.608Z,1014.46
2018-09-12T07:54:59.775Z,1014.77
2018-09-12T07:55:59.650Z,1014.67
2018-09-12T07:56:59.585Z,1014.37
2018-09-12T07:57:59.600Z,1014.19
2018-09-12T07:58:59.648Z,1015.07
2018-09-12T07:59:59.644Z,1014.90
2018-09-12T08:00:59.569Z,1014.54
2018-09-12T08:01:59.612Z,1014.46
2018-09-12T08:02:59.751Z,1014.51
2018-09-12T08:03:59.649Z,1014.49
2018-09-12T08:04:59.672Z,1014.96
2018-09-12T08:05:59.611Z,1014.41
2018-09-12T08:06:59.617Z,1015.02
2018-09-12T08:07:59.731Z,1015.22
2018-09-12T08:08:59.627Z,1015.44
2018-09-12T08:09:59.669Z,1014.82
2018-09-12T08:10:59.805Z,1014.38
2018-09-12T08:11:59.773Z,1014.26
2018-09-12T08:12:59.697Z,1014.26
2018-09-12T08:14:02.320Z,1014.54
2018-09-12T08:14:59.766Z,1014.23
2018-09-12T08:15:59.711Z,1014.22
2018-09-12T08:16:59.706Z,1014.30
2018-09-12T08:17:59.750Z,1014.16
2018-09-12T08:18:59.776Z,1014.28
2018-09-12T08:19:59.816Z,1014.20
2018-09-12T08:20:59.974Z,1015.21
2018-09-12T08:21:59.754Z,1014.69
2018-09-12T08:22:59.713Z,1014.43
2018-09-12T08:23:59.771Z,1014.22
2018-09-12T08:24:59.732Z,1015.32
2018-09-12T08:25:59.856Z,1015.28
2018-09-12T08:26:59.890Z,1015.37
2018-09-12T08:27:59.741Z,1015.27
2018-09-12T08:28:59.800Z,1015.37
2018-09-12T08:29:59.810Z,1015.48
2018-09-12T08:30:59.761Z,1015.60
2018-09-12T08:31:59.775Z,1014.49
2018-09-12T08:32:59.873Z,1015.54
2018-09-12T08:34:00.011Z,1015.43
2018-09-12T08:34:59.776Z,1015.50
2018-09-12T08:35:59.863Z,1015.49
2018-09-12T08:36:59.788Z,1015.62
2018-09-12T08:38:00.389Z,1015.52
2018-09-12T08:39:00.900Z,1015.58
2018-09-12T08:39:59.919Z,1015.64
2018-09-12T08:40:59.805Z,1015.58
2018-09-12T08:41:59.896Z,1015.61
2018-09-12T08:42:59.883Z,1014.97
2018-09-12T08:43:59.865Z,1014.90
2018-09-12T08:44:59.936Z,1014.63
2018-09-12T08:46:00.704Z,1014.73
2018-09-12T08:47:00.199Z,1014.72
2018-09-12T08:47:59.895Z,1014.63
2018-09-12T08:49:00.042Z,1014.63
2018-09-12T08:49:59.937Z,1014.62
2018-09-12T08:51:00.053Z,1014.62
2018-09-12T08:52:00.011Z,1014.59
2018-09-12T08:53:00.029Z,1014.64
2018-09-12T08:54:00.073Z,1014.44
2018-09-12T08:55:00.726Z,1014.64
2018-09-12T08:56:00.009Z,1014.66
2018-09-12T08:56:59.959Z,1014.73
2018-09-12T08:57:59.962Z,1014.57
2018-09-12T08:58:59.974Z,1014.77
2018-09-12T09:00:00.124Z,1014.72
2018-09-12T09:00:59.995Z,1014.85
2018-09-12T09:02:00.717Z,1014.92
2018-09-12T09:03:00.009Z,1015.02
2018-09-12T09:04:00.095Z,1014.68
2018-09-12T09:05:00.062Z,1014.41
2018-09-12T09:06:00.071Z,1014.52
2018-09-12T09:07:00.139Z,1014.53
2018-09-12T09:08:00.146Z,1015.11
2018-09-12T09:09:00.162Z,1014.96
2018-09-12T09:10:00.110Z,1014.69
2018-09-12T09:11:00.140Z,1014.67
2018-09-12T09:12:00.040Z,1014.49
2018-09-12T09:13:00.089Z,1014.41
2018-09-12T09:14:00.100Z,1014.41
2018-09-12T09:15:00.180Z,1014.40
2018-09-12T09:16:00.724Z,1014.47
2018-09-12T09:17:00.094Z,1014.45
2018-09-12T09:18:00.147Z,1014.44
2018-09-12T09:19:00.136Z,1014.49
2018-09-12T09:20:00.211Z,1014.42
2018-09-12T09:21:00.145Z,1014.43
2018-09-12T09:22:00.226Z,1014.39
2018-09-12T09:23:03.688Z,1014.34
2018-09-12T09:24:00.139Z,1014.40
2018-09-12T09:25:00.140Z,1014.46
2018-09-12T09:26:00.128Z,1014.49
2018-09-12T09:27:00.195Z,1014.42
2018-09-12T09:28:00.195Z,1014.55
2018-09-12T09:29:00.389Z,1014.49
2018-09-12T09:30:00.200Z,1014.50
2018-09-12T09:31:00.252Z,1014.47
2018-09-12T09:32:00.232Z,1014.47
2018-09-12T09:33:00.294Z,1014.54
2018-09-12T09:34:00.182Z,1014.59
2018-09-12T09:35:00.236Z,1014.67
2018-09-12T09:36:01.232Z,1014.60
2018-09-12T09:37:00.224Z,1014.56
2018-09-12T09:38:00.293Z,1014.60
2018-09-12T09:39:00.277Z,1014.62
2018-09-12T09:40:00.247Z,1014.61
2018-09-12T09:41:00.253Z,1014.63
2018-09-12T09:42:00.239Z,1014.62
2018-09-12T09:43:00.228Z,1014.67
2018-09-12T09:44:00.336Z,1014.60
2018-09-12T09:45:00.241Z,1014.58
2018-09-12T09:46:00.323Z,1014.57
2018-09-12T09:47:00.236Z,1014.68
2018-09-12T09:48:00.453Z,1014.68
2018-09-12T09:49:00.408Z,1014.60
2018-09-12T09:50:00.258Z,1014.64
2018-09-12T09:51:00.414Z,1014.66
2018-09-12T09:52:00.376Z,1014.66
2018-09-12T09:53:00.264Z,1014.68
2018-09-12T09:54:00.754Z,1014.64
2018-09-12T09:55:00.357Z,1014.72
2018-09-12T09:56:00.365Z,1014.73
2018-09-12T09:57:00.365Z,1014.75
2018-09-12T09:58:00.392Z,1014.75
2018-09-12T09:59:00.315Z,1014.73
2018-09-12T10:00:00.416Z,1014.65
2018-09-12T10:01:00.325Z,1014.73
2018-09-12T10:02:00.451Z,1014.69
2018-09-12T10:03:00.511Z,1014.73
2018-09-12T10:04:00.686Z,1014.83
2018-09-12T10:05:00.634Z,1014.72
2018-09-12T10:06:00.470Z,1014.69
2018-09-12T10:07:01.286Z,1014.67
2018-09-12T10:08:00.341Z,1014.64
2018-09-12T10:09:00.368Z,1014.64
2018-09-12T10:10:01.267Z,1014.65
2018-09-12T10:11:00.380Z,1014.78
2018-09-12T10:12:00.553Z,1014.81
2018-09-12T10:13:01.265Z,1014.73
2018-09-12T10:14:00.376Z,1014.85
2018-09-12T10:15:00.402Z,1014.88
2018-09-12T10:16:00.433Z,1014.83
2018-09-12T10:17:00.573Z,1014.86
2018-09-12T10:18:00.414Z,1014.96
2018-09-12T10:19:00.446Z,1014.87
2018-09-12T10:20:00.446Z,1014.94
2018-09-12T10:21:00.439Z,1014.93
2018-09-12T10:22:00.434Z,1015.23
2018-09-12T10:23:00.413Z,1015.08
2018-09-12T10:24:00.553Z,1014.87
2018-09-12T10:25:00.488Z,1014.66
2018-09-12T10:26:01.418Z,1014.84
2018-09-12T10:27:00.487Z,1015.10
2018-09-12T10:28:00.504Z,1014.91
2018-09-12T10:29:00.481Z,1014.85
2018-09-12T10:30:01.460Z,1014.86
2018-09-12T10:31:00.502Z,1014.86
2018-09-12T10:32:01.153Z,1014.89
2018-09-12T10:33:00.530Z,1014.82
2018-09-12T10:34:00.577Z,1014.89
2018-09-12T10:35:01.290Z,1014.90
2018-09-12T10:36:00.572Z,1014.96
2018-09-12T10:37:00.522Z,1014.94
2018-09-12T10:38:01.275Z,1014.99
2018-09-12T10:39:00.551Z,1014.97
2018-09-12T10:40:00.545Z,1014.96
2018-09-12T10:41:00.630Z,1015.07
2018-09-12T10:42:00.582Z,1015.05
2018-09-12T10:43:00.596Z,1015.06
2018-09-12T10:44:00.564Z,1015.03
2018-09-12T10:45:00.547Z,1015.10
2018-09-12T10:46:00.692Z,1015.15
2018-09-12T10:47:00.539Z,1015.13
2018-09-12T10:48:00.609Z,1015.24
2018-09-12T10:49:00.627Z,1015.30
2018-09-12T10:50:00.586Z,1015.17
2018-09-12T10:51:00.675Z,1015.39
2018-09-12T10:52:00.599Z,1015.33
2018-09-12T10:53:00.555Z,1015.41
2018-09-12T10:54:00.642Z,1015.36
2018-09-12T10:55:00.660Z,1015.37
2018-09-12T10:56:00.590Z,1015.37
2018-09-12T10:57:00.629Z,1015.42
2018-09-12T10:58:00.615Z,1015.41
2018-09-12T10:59:00.669Z,1015.38
2018-09-12T11:00:00.654Z,1015.28
2018-09-12T11:01:00.626Z,1015.28
2018-09-12T11:02:00.641Z,1015.26
2018-09-12T11:03:00.607Z,1015.29
2018-09-12T11:04:00.747Z,1015.32
2018-09-12T11:05:00.689Z,1015.37
2018-09-12T11:06:00.618Z,1015.38
2018-09-12T11:07:00.695Z,1015.37
2018-09-12T11:08:00.653Z,1015.40
2018-09-12T11:09:00.639Z,1015.49
2018-09-12T11:10:00.647Z,1015.58
2018-09-12T11:11:00.667Z,1015.63
2018-09-12T11:12:00.681Z,1015.57
2018-09-12T11:13:00.684Z,1015.62
2018-09-12T11:14:00.716Z,1015.61
2018-09-12T11:15:00.701Z,1015.58
2018-09-12T11:16:00.648Z,1015.65
2018-09-12T11:17:00.663Z,1015.61
2018-09-12T11:18:00.662Z,1015.58
2018-09-12T11:19:00.668Z,1015.56
2018-09-12T11:20:00.682Z,1015.55
2018-09-12T11:21:00.779Z,1015.61
2018-09-12T11:22:00.739Z,1015.57
2018-09-12T11:23:00.765Z,1015.54
2018-09-12T11:24:00.737Z,1015.60
2018-09-12T11:25:00.769Z,1015.59
2018-09-12T11:26:01.466Z,1015.66
2018-09-12T11:27:00.740Z,1015.55
2018-09-12T11:28:00.753Z,1015.56
2018-09-12T11:29:00.730Z,1015.53
2018-09-12T11:30:00.750Z,1015.53
2018-09-12T11:31:00.793Z,1015.72
2018-09-12T11:32:00.729Z,1015.67
2018-09-12T11:33:04.635Z,1015.61
2018-09-12T11:34:00.745Z,1015.62
2018-09-12T11:35:01.335Z,1015.63
2018-09-12T11:36:00.804Z,1015.60
2018-09-12T11:37:00.711Z,1015.60
2018-09-12T11:39:05.629Z,1015.66
2018-09-12T11:40:01.131Z,1015.71
2018-09-12T11:41:00.771Z,1015.72
2018-09-12T11:42:00.814Z,1015.74
2018-09-12T11:43:00.778Z,1015.79
2018-09-12T11:46:01.179Z,1015.73
2018-09-12T11:47:06.092Z,1015.70
2018-09-12T11:48:01.326Z,1015.74
2018-09-12T11:49:02.201Z,1015.76
2018-09-12T11:51:00.918Z,1015.83
2018-09-12T11:52:00.801Z,1015.79
2018-09-12T11:53:00.876Z,1015.85
2018-09-12T11:54:00.808Z,1015.81
2018-09-12T11:55:00.846Z,1015.86
2018-09-12T11:56:00.844Z,1015.88
2018-09-12T11:57:00.820Z,1015.91
2018-09-12T11:58:01.314Z,1015.96
2018-09-12T11:59:00.803Z,1015.93
2018-09-12T12:00:00.820Z,1015.92
2018-09-12T12:01:00.830Z,1015.95
2018-09-12T12:02:00.837Z,1016.02
2018-09-12T12:03:00.837Z,1015.97
2018-09-12T12:04:00.856Z,1015.96
2018-09-12T12:05:00.872Z,1016.02
2018-09-12T12:06:00.990Z,1015.99
2018-09-12T12:07:00.868Z,1015.99
2018-09-12T12:08:00.833Z,1015.98
2018-09-12T12:09:00.842Z,1015.98
2018-09-12T12:10:01.007Z,1016.01